CheckWX is a tool to help pilots better visualize weather data.  It is not intended as a substitute for an official pre-flight weather briefing.

20:36:48 UTC

EGOV METAR
Anglesey Airport
Angelsey, United Kingdom
Current

47 mins ago

EGOV 161950Z AUTO 18012KT 9999 NCD 16/14 Q1017
Observed
Jul-16 @ 19:50 UTC
Wind
  • 180° at 12 KTS
Visibility
10,000+ meters
Flight Rules
VFR
Cloud Levels
  • Clear skies
Temperature
16°C / 61°F
Dewpoint
14°C / 57°F
Humidity
88%
Altimeter
30.03" Hg
Pressure
1016.92 hPa
Previous

2 hours ago

EGOV 161850Z AUTO 20011KT 9999 NCD 17/14 Q1017
Observed
Jul-16 @ 18:50 UTC
Wind
  • 200° at 11 KTS
Visibility
10,000+ meters
Flight Rules
VFR
Cloud Levels
  • Clear skies
Temperature
17°C / 63°F
Dewpoint
14°C / 57°F
Humidity
83%
Altimeter
30.03" Hg
Pressure
1016.92 hPa
Previous

3 hours ago

EGOV 161750Z AUTO 19011KT 9999 NCD 17/14 Q1017
Observed
Jul-16 @ 17:50 UTC
Wind
  • 190° at 11 KTS
Visibility
10,000+ meters
Flight Rules
VFR
Cloud Levels
  • Clear skies
Temperature
17°C / 63°F
Dewpoint
14°C / 57°F
Humidity
83%
Altimeter
30.03" Hg
Pressure
1016.92 hPa